• Join FlightAware (Why Join?)
  • Login
  • US Flag 
04:04AM EDT


 

Airport Tracker/Info


-or-


 

Live Flight TrackerFlight Track Log ✈ SWA1182 ✈ 11-May-2013 ✈ KONT - KPHX

Flight Track Log - Related Links

Times and Time Zones

All times are in EDT time to prevent confusion due to time zone crossing. See the SWA1182 flight status page for this flight to view local times or setup timezone preferences in your user account.

Time Position Orientation Groundspeed Altitude Reporting Facility
EDT Latitude Longitude Course Direction KTS MPH feet Rate Location/Type
07:24PM 34.0022 -117.5997 164° South 232 267 4,400  Level Los Angeles Center
07:25PM 33.9481 -117.5531 144° Southeast 237 273 7,000 2,040 Climbing Los Angeles Center
07:26PM 33.8833 -117.4986 145° Southeast 271 312 8,600 2,340 Climbing Los Angeles Center
07:27PM 33.8025 -117.4300 145° Southeast 291 335 11,800 3,240 Climbing Los Angeles Center
07:28PM 33.8014 -117.4372 145° Southeast  Level FlightAware Approximate
07:28PM 33.7314 -117.3536 138° Southeast 336 387 15,300  Level Los Angeles Center
07:29PM 33.7203 -117.3697 145° Southeast  Level FlightAware Approximate
07:29PM 33.7225 -117.2403 95° East 341 392 18,900  Level Los Angeles Center
07:30PM 33.7106 -117.1214 97° East 354 407 22,100 3,060 Climbing Los Angeles Center
07:31PM 33.7006 -116.9917 95° East 382 440 25,300 3,120 Climbing Los Angeles Center
07:33PM 33.6889 -116.8467 95° East 392 451 28,500 3,000 Climbing Los Angeles Center
07:34PM 33.6764 -116.7142 96° East 397 457 31,500 2,160 Climbing Los Angeles Center
07:35PM 33.6653 -116.5842 96° East 394 453 33,000 720 Climbing Los Angeles Center
07:36PM 33.6533 -116.4503 96° East 402 463 33,000  Level Los Angeles Center
07:37PM 33.6408 -116.3172 96° East 402 463 33,000  Level Los Angeles Center
07:38PM 33.6294 -116.1831 96° East 404 465 33,000  Level Los Angeles Center
07:39PM 33.6250 -116.0483 92° East 403 464 33,000  Level Los Angeles Center
07:40PM 33.6222 -115.8858 91° East 405 466 33,000  Level Los Angeles Center
07:41PM 33.6192 -115.7553 92° East 397 457 33,000  Level Los Angeles Center
07:42PM 33.6167 -115.6225 91° East 397 457 33,000  Level Los Angeles Center
07:43PM 33.6133 -115.4906 92° East 396 456 33,000  Level Los Angeles Center
07:44PM 33.6103 -115.3572 92° East 399 459 33,000  Level Los Angeles Center
07:45PM 33.6072 -115.2244 92° East 400 460 33,000  Level Los Angeles Center
07:46PM 33.6033 -115.0908 92° East 403 464 33,000  Level Los Angeles Center
07:47PM 33.6000 -114.9572 92° East 402 463 33,000  Level Los Angeles Center
07:48PM 33.5961 -114.8236 92° East 403 464 33,000  Level Los Angeles Center
07:49PM 33.5750 -114.6608 99° East 418 481 33,000  Level Los Angeles Center
07:49PM 33.5686 -114.6161 100° East 419 482 33,000 -120 Level Albuquerque Center
07:50PM 33.5422 -114.4814 103° East 418 481 32,900 -1,380 Descending Albuquerque Center
07:51PM 33.5175 -114.3453 102° East 418 481 30,200 -2,760 Descending Albuquerque Center
07:52PM 33.4906 -114.2125 104° East 413 475 27,400 -2,580 Descending Albuquerque Center
07:53PM 33.4639 -114.0844 104° East 402 463 25,000 -1,200 Descending Albuquerque Center
07:54PM 33.4394 -113.9614 103° East 386 444 25,000  Level Albuquerque Center
07:55PM 33.4153 -113.8383 103° East 381 438 25,000  Level Albuquerque Center
07:56PM 33.3900 -113.7158 104° East 380 437 25,000 -180 Level Albuquerque Center
07:57PM 33.3653 -113.5936 104° East 380 437 24,700 -1,440 Descending Albuquerque Center
07:58PM 33.3411 -113.4739 104° East 374 430 22,100 -1,860 Descending Albuquerque Center
07:59PM 33.3125 -113.3356 104° East 360 414 20,900 -1,740 Descending Albuquerque Center
08:01PM 33.2886 -113.2222 104° East 354 407 18,600 -2,220 Descending Albuquerque Center
08:02PM 33.2733 -113.1122 99° East 341 392 16,400 -1,920 Descending Albuquerque Center
08:03PM 33.2761 -112.9992 88° East 339 390 14,700 -1,860 Descending Albuquerque Center
08:04PM 33.2783 -112.8903 89° East 332 382 12,700 -1,620 Descending Albuquerque Center
08:05PM 33.2886 -112.7917 83° East 309 356 11,400 -1,380 Descending Albuquerque Center
08:06PM 33.3217 -112.7108 64° Northeast 276 318 9,900 -1,260 Descending Albuquerque Center
08:07PM 33.3514 -112.6269 67° East 273 314 8,900 -960 Descending Albuquerque Center
08:08PM 33.3875 -112.5372 64° Northeast 270 311 8,000 -900 Descending Albuquerque Center
08:09PM 33.4169 -112.4572 66° East 265 305 7,100 -900 Descending Albuquerque Center
08:10PM 33.4272 -112.3756 81° East 253 291 6,200 -1,020 Descending Albuquerque Center
08:11PM 33.4278 -112.2939 90° East 249 287 5,100 -900 Descending Albuquerque Center
08:12PM 33.4292 -112.2192 89° East 235 270 4,400 -1,020 Descending Albuquerque Center
08:13PM 33.4283 -112.1589 91° East 202 232 3,100 -1,080 Descending Albuquerque Center
08:14PM 33.4314 -112.0964 87° East 178 205 2,200 -840 Descending Albuquerque Center
08:15PM 33.4314 -112.0528 90° East 155 178 1,500 -600 Descending Albuquerque Center
08:16PM 33.4317 -112.0131 90° East 146 168 1,100 -420 Descending Albuquerque Center
08:18PM 33.4343 -112.0116 68° East  Level Estimated